Observation data for Spur on 08/06/2020      Previous  Date       Current Mesonet Observations  Soil Data  Daily Summary Page  Observations in Plain Language
KSP1 060500Z 10008KT 29/18 A2994 RMK A01 T02890180  RH  054%=      5-min Rain = 0
KSP1 060505Z 09009KT 29/18 A2994 RMK A01 T02880181  RH  055%=      5-min Rain = 0
KSP1 060510Z 09009KT 29/18 A2994 RMK A01 T02860182  RH  056%=      5-min Rain = 0
KSP1 060515Z 09009KT 29/18 A2995 RMK A01 T02850182  RH  057%=      5-min Rain = 0
KSP1 060520Z 07007KT 28/18 A2995 RMK A01 T02810181  RH  058%=      5-min Rain = 0
KSP1 060525Z 08007KT 28/18 A2995 RMK A01 T02760181  RH  059%=      5-min Rain = 0
KSP1 060530Z 07007KT 27/18 A2995 RMK A01 T02740182  RH  060%=      5-min Rain = 0
KSP1 060535Z 07006KT 27/18 A2995 RMK A01 T02720182  RH  061%=      5-min Rain = 0
KSP1 060540Z 07006KT 27/18 A2995 RMK A01 T02690182  RH  062%=      5-min Rain = 0
KSP1 060545Z 07006KT 27/18 A2995 RMK A01 T02670182  RH  063%=      5-min Rain = 0
KSP1 060550Z 07006KT 27/18 A2995 RMK A01 T02650183  RH  064%=      5-min Rain = 0
KSP1 060555Z 07004KT 26/18 A2995 RMK A01 T02630184  RH  065%=      5-min Rain = 0
KSP1 060600Z 06005KT 26/18 A2995 RMK A01 T02610184  RH  066%=      5-min Rain = 0
KSP1 060605Z 05004KT 26/18 A2996 RMK A01 T02600184  RH  066%=      5-min Rain = 0
KSP1 060610Z 05003KT 26/18 A2996 RMK A01 T02590184  RH  067%=      5-min Rain = 0
KSP1 060615Z 05003KT 26/18 A2996 RMK A01 T02580184  RH  067%=      5-min Rain = 0
KSP1 060620Z 06005KT 26/18 A2995 RMK A01 T02580184  RH  067%=      5-min Rain = 0
KSP1 060625Z 06007KT 26/18 A2995 RMK A01 T02570184  RH  068%=      5-min Rain = 0
KSP1 060630Z 06007KT 26/19 A2995 RMK A01 T02550185  RH  068%=      5-min Rain = 0
KSP1 060635Z 05004KT 25/19 A2995 RMK A01 T02540185  RH  069%=      5-min Rain = 0
KSP1 060640Z 05001KT 25/19 A2995 RMK A01 T02540185  RH  069%=      5-min Rain = 0
KSP1 060645Z 06004KT 25/19 A2995 RMK A01 T02530185  RH  070%=      5-min Rain = 0
KSP1 060650Z 06007KT 25/19 A2995 RMK A01 T02530185  RH  070%=      5-min Rain = 0
KSP1 060655Z 06006KT 25/19 A2995 RMK A01 T02510185  RH  071%=      5-min Rain = 0
KSP1 060700Z 06004KT 25/19 A2995 RMK A01 T02500185  RH  071%=      5-min Rain = 0
KSP1 060705Z 05004KT 25/19 A2995 RMK A01 T02490185  RH  072%=      5-min Rain = 0
KSP1 060710Z 06004KT 25/19 A2995 RMK A01 T02480185  RH  072%=      5-min Rain = 0
KSP1 060715Z 06006KT 25/19 A2995 RMK A01 T02470185  RH  072%=      5-min Rain = 0
KSP1 060720Z 07006KT 25/19 A2995 RMK A01 T02470185  RH  072%=      5-min Rain = 0
KSP1 060725Z 06005KT 25/19 A2995 RMK A01 T02460186  RH  073%=      5-min Rain = 0
KSP1 060730Z 05004KT 25/19 A2995 RMK A01 T02450186  RH  073%=      5-min Rain = 0
KSP1 060735Z 04004KT 25/19 A2995 RMK A01 T02450186  RH  073%=      5-min Rain = 0
KSP1 060740Z 03002KT 25/19 A2995 RMK A01 T02450186  RH  073%=      5-min Rain = 0
KSP1 060745Z 03003KT 25/19 A2995 RMK A01 T02450186  RH  074%=      5-min Rain = 0
KSP1 060750Z 04002KT 24/19 A2995 RMK A01 T02430186  RH  074%=      5-min Rain = 0
KSP1 060755Z 02004KT 24/19 A2995 RMK A01 T02440186  RH  074%=      5-min Rain = 0
KSP1 060800Z 01003KT 24/19 A2995 RMK A01 T02430185  RH  074%=      5-min Rain = 0
KSP1 060805Z 01003KT 24/18 A2995 RMK A01 T02400184  RH  075%=      5-min Rain = 0
KSP1 060810Z 03003KT 24/19 A2995 RMK A01 T02390185  RH  076%=      5-min Rain = 0
KSP1 060815Z 32003KT 24/18 A2995 RMK A01 T02390184  RH  075%=      5-min Rain = 0
KSP1 060820Z 01003KT 24/18 A2995 RMK A01 T02380183  RH  076%=      5-min Rain = 0
KSP1 060825Z 04004KT 24/18 A2995 RMK A01 T02370184  RH  076%=      5-min Rain = 0
KSP1 060830Z 02002KT 24/18 A2995 RMK A01 T02370184  RH  076%=      5-min Rain = 0
KSP1 060835Z 03002KT 24/18 A2995 RMK A01 T02360183  RH  076%=      5-min Rain = 0
KSP1 060840Z 04001KT 24/18 A2995 RMK A01 T02360183  RH  076%=      5-min Rain = 0
KSP1 060845Z 05002KT 24/19 A2995 RMK A01 T02370185  RH  077%=      5-min Rain = 0
KSP1 060850Z 02001KT 24/18 A2995 RMK A01 T02370184  RH  076%=      5-min Rain = 0
KSP1 060855Z 03002KT 24/18 A2995 RMK A01 T02360182  RH  076%=      5-min Rain = 0
KSP1 060900Z 03002KT 24/18 A2995 RMK A01 T02350181  RH  076%=      5-min Rain = 0
KSP1 060905Z 04001KT 24/18 A2995 RMK A01 T02350181  RH  076%=      5-min Rain = 0
KSP1 060910Z 05001KT 24/18 A2995 RMK A01 T02350184  RH  077%=      5-min Rain = 0
KSP1 060915Z 03001KT 23/18 A2995 RMK A01 T02340183  RH  077%=      5-min Rain = 0
KSP1 060920Z 05002KT 23/18 A2995 RMK A01 T02330181  RH  077%=      5-min Rain = 0
KSP1 060925Z 07002KT 23/18 A2995 RMK A01 T02330184  RH  078%=      5-min Rain = 0
KSP1 060930Z 07002KT 23/18 A2995 RMK A01 T02330184  RH  078%=      5-min Rain = 0
KSP1 060935Z 07002KT 23/18 A2995 RMK A01 T02330184  RH  078%=      5-min Rain = 0
KSP1 060940Z 09002KT 23/18 A2995 RMK A01 T02320184  RH  079%=      5-min Rain = 0
KSP1 060945Z 14001KT 23/18 A2995 RMK A01 T02300181  RH  078%=      5-min Rain = 0
KSP1 060950Z 18001KT 23/18 A2995 RMK A01 T02250178  RH  079%=      5-min Rain = 0
KSP1 060955Z 16001KT 22/18 A2995 RMK A01 T02240178  RH  079%=      5-min Rain = 0
KSP1 061000Z 15000KT 22/18 A2995 RMK A01 T02230179  RH  080%=      5-min Rain = 0
KSP1 061005Z 20001KT 22/18 A2995 RMK A01 T02220178  RH  080%=      5-min Rain = 0
KSP1 061010Z 22002KT 22/18 A2995 RMK A01 T02200178  RH  081%=      5-min Rain = 0
KSP1 061015Z 22002KT 22/18 A2995 RMK A01 T02180177  RH  082%=      5-min Rain = 0
KSP1 061020Z 22002KT 22/18 A2995 RMK A01 T02180179  RH  083%=      5-min Rain = 0
KSP1 061025Z 23002KT 22/18 A2995 RMK A01 T02190180  RH  083%=      5-min Rain = 0
KSP1 061030Z 25001KT 22/18 A2995 RMK A01 T02180179  RH  083%=      5-min Rain = 0
KSP1 061035Z 26001KT 22/18 A2995 RMK A01 T02160177  RH  083%=      5-min Rain = 0
KSP1 061040Z 26000KT 21/17 A2995 RMK A01 T02140174  RH  082%=      5-min Rain = 0
KSP1 061045Z 30000KT 22/18 A2995 RMK A01 T02150177  RH  083%=      5-min Rain = 0
KSP1 061050Z 31000KT 22/18 A2995 RMK A01 T02160176  RH  082%=      5-min Rain = 0
KSP1 061055Z 00000KT 22/17 A2995 RMK A01 T02150173  RH  081%=      5-min Rain = 0
KSP1 061100Z 04001KT 21/17 A2995 RMK A01 T02140172  RH  081%=      5-min Rain = 0
KSP1 061105Z 05002KT 21/17 A2995 RMK A01 T02140172  RH  081%=      5-min Rain = 0
KSP1 061110Z 07002KT 21/17 A2996 RMK A01 T02140172  RH  081%=      5-min Rain = 0
KSP1 061115Z 11002KT 21/17 A2996 RMK A01 T02140174  RH  082%=      5-min Rain = 0
KSP1 061120Z 17002KT 22/18 A2996 RMK A01 T02160175  RH  081%=      5-min Rain = 0
KSP1 061125Z 18002KT 22/17 A2995 RMK A01 T02170173  RH  080%=      5-min Rain = 0
KSP1 061130Z 18002KT 22/17 A2995 RMK A01 T02150171  RH  080%=      5-min Rain = 0
KSP1 061135Z 20002KT 21/17 A2996 RMK A01 T02140172  RH  081%=      5-min Rain = 0
KSP1 061140Z 23001KT 22/17 A2996 RMK A01 T02160173  RH  080%=      5-min Rain = 0
KSP1 061145Z 24001KT 22/17 A2996 RMK A01 T02170171  RH  079%=      5-min Rain = 0
KSP1 061150Z 20001KT 22/17 A2996 RMK A01 T02160170  RH  079%=      5-min Rain = 0
KSP1 061155Z 14001KT 22/17 A2996 RMK A01 T02160172  RH  080%=      5-min Rain = 0
KSP1 061200Z 15002KT 22/17 A2996 RMK A01 T02190172  RH  079%=      5-min Rain = 0
KSP1 061205Z 19002KT 22/17 A2996 RMK A01 T02210171  RH  077%=      5-min Rain = 0
KSP1 061210Z 19002KT 22/17 A2996 RMK A01 T02230169  RH  075%=      5-min Rain = 0
KSP1 061215Z 19002KT 22/17 A2996 RMK A01 T02240170  RH  075%=      5-min Rain = 0
KSP1 061220Z 23002KT 22/17 A2997 RMK A01 T02230171  RH  076%=      5-min Rain = 0
KSP1 061225Z 29001KT 22/17 A2997 RMK A01 T02240169  RH  075%=      5-min Rain = 0
KSP1 061230Z 30001KT 23/17 A2997 RMK A01 T02250170  RH  075%=      5-min Rain = 0
KSP1 061235Z 24001KT 23/17 A2997 RMK A01 T02260169  RH  074%=      5-min Rain = 0
KSP1 061240Z 22001KT 23/17 A2997 RMK A01 T02290169  RH  072%=      5-min Rain = 0
KSP1 061245Z 21002KT 23/17 A2997 RMK A01 T02320168  RH  071%=      5-min Rain = 0
KSP1 061250Z 20003KT 23/17 A2997 RMK A01 T02340166  RH  069%=      5-min Rain = 0
KSP1 061255Z 20002KT 24/17 A2997 RMK A01 T02370166  RH  068%=      5-min Rain = 0
KSP1 061300Z 20002KT 24/17 A2997 RMK A01 T02420165  RH  065%=      5-min Rain = 0
KSP1 061305Z 19002KT 25/16 A2997 RMK A01 T02450164  RH  064%=      5-min Rain = 0
KSP1 061310Z 18002KT 25/17 A2997 RMK A01 T02490165  RH  062%=      5-min Rain = 0
KSP1 061315Z 20003KT 25/16 A2997 RMK A01 T02510163  RH  061%=      5-min Rain = 0
KSP1 061320Z 20003KT 25/16 A2998 RMK A01 T02530160  RH  059%=      5-min Rain = 0
KSP1 061325Z 19002KT 25/16 A2998 RMK A01 T02530161  RH  059%=      5-min Rain = 0
KSP1 061330Z 23001KT 25/16 A2998 RMK A01 T02540162  RH  059%=      5-min Rain = 0
KSP1 061335Z 24002KT 26/16 A2998 RMK A01 T02560163  RH  059%=      5-min Rain = 0
KSP1 061340Z 24002KT 26/16 A2998 RMK A01 T02570163  RH  059%=      5-min Rain = 0
KSP1 061345Z 23003KT 26/16 A2998 RMK A01 T02580163  RH  058%=      5-min Rain = 0
KSP1 061350Z 22003KT 26/16 A2998 RMK A01 T02600163  RH  058%=      5-min Rain = 0
KSP1 061355Z 21004KT 26/16 A2998 RMK A01 T02630164  RH  057%=      5-min Rain = 0
KSP1 061400Z 22007KT 27/16 A2998 RMK A01 T02660161  RH  055%=      5-min Rain = 0
KSP1 061405Z 22007KT 27/16 A2998 RMK A01 T02690161  RH  054%=      5-min Rain = 0
KSP1 061410Z 22008KT 27/16 A2998 RMK A01 T02710160  RH  053%=      5-min Rain = 0
KSP1 061415Z 22007KT 27/16 A2998 RMK A01 T02720161  RH  053%=      5-min Rain = 0
KSP1 061420Z 21008KT 27/16 A2998 RMK A01 T02730161  RH  053%=      5-min Rain = 0
KSP1 061425Z 22008KT 27/16 A2998 RMK A01 T02730161  RH  053%=      5-min Rain = 0
KSP1 061430Z 22008KT 27/16 A2998 RMK A01 T02720162  RH  053%=      5-min Rain = 0
KSP1 061435Z 22008KT 27/16 A2998 RMK A01 T02730162  RH  053%=      5-min Rain = 0
KSP1 061440Z 21007KT 28/16 A2998 RMK A01 T02750163  RH  053%=      5-min Rain = 0
KSP1 061445Z 22010KT 28/16 A2999 RMK A01 T02770163  RH  052%=      5-min Rain = 0
KSP1 061450Z 22009G15KT 28/16 A2999 RMK A01 T02800164  RH  052%=      5-min Rain = 0
KSP1 061455Z 22013G19KT 29/16 A2999 RMK A01 T02860163  RH  050%=      5-min Rain = 0
KSP1 061500Z 22013KT 29/16 A2998 RMK A01 T02900163  RH  049%=      5-min Rain = 0
KSP1 061505Z 22012G17KT 29/16 A2998 RMK A01 T02880163  RH  049%=      5-min Rain = 0
KSP1 061510Z 21013G18KT 29/16 A2998 RMK A01 T02890163  RH  049%=      5-min Rain = 0
KSP1 061515Z 22012G17KT 29/16 A2999 RMK A01 T02880162  RH  049%=      5-min Rain = 0
KSP1 061520Z 22012G18KT 29/16 A2999 RMK A01 T02880162  RH  049%=      5-min Rain = 0
KSP1 061525Z 22012KT 29/16 A2999 RMK A01 T02890162  RH  049%=      5-min Rain = 0
KSP1 061530Z 22011KT 29/16 A2999 RMK A01 T02940163  RH  048%=      5-min Rain = 0
KSP1 061535Z 21013G18KT 30/16 A2999 RMK A01 T02950162  RH  047%=      5-min Rain = 0
KSP1 061540Z 22010G15KT 30/16 A2999 RMK A01 T02990164  RH  046%=      5-min Rain = 0
KSP1 061545Z 23011G17KT 30/16 A2999 RMK A01 T03010163  RH  045%=      5-min Rain = 0
KSP1 061550Z 23011G16KT 30/16 A2999 RMK A01 T03000162  RH  046%=      5-min Rain = 0
KSP1 061555Z 22010G16KT 31/16 A2999 RMK A01 T03100162  RH  043%=      5-min Rain = 0
KSP1 061600Z 22012G17KT 32/16 A2999 RMK A01 T03160160  RH  041%=      5-min Rain = 0
KSP1 061605Z 22012G18KT 32/16 A2999 RMK A01 T03170159  RH  041%=      5-min Rain = 0
KSP1 061610Z 23008KT 32/16 A2999 RMK A01 T03200161  RH  041%=      5-min Rain = 0
KSP1 061615Z 22009KT 32/16 A2999 RMK A01 T03170159  RH  040%=      5-min Rain = 0
KSP1 061620Z 22011KT 31/16 A2999 RMK A01 T03130157  RH  041%=      5-min Rain = 0
KSP1 061625Z 21011KT 32/16 A2999 RMK A01 T03160156  RH  040%=      5-min Rain = 0
KSP1 061630Z 21011KT 32/16 A2999 RMK A01 T03160156  RH  040%=      5-min Rain = 0
KSP1 061635Z 22011KT 32/15 A2999 RMK A01 T03150154  RH  040%=      5-min Rain = 0
KSP1 061640Z 22011G16KT 32/15 A2999 RMK A01 T03180151  RH  038%=      5-min Rain = 0
KSP1 061645Z 22010G15KT 32/15 A2999 RMK A01 T03160151  RH  038%=      5-min Rain = 0
KSP1 061650Z 22010KT 32/15 A2999 RMK A01 T03180152  RH  039%=      5-min Rain = 0
KSP1 061655Z 22010KT 32/15 A2999 RMK A01 T03160152  RH  039%=      5-min Rain = 0
KSP1 061700Z 21011KT 32/15 A2999 RMK A01 T03170150  RH  038%=      5-min Rain = 0
KSP1 061705Z 21010KT 32/15 A2999 RMK A01 T03190151  RH  038%=      5-min Rain = 0
KSP1 061710Z 21011KT 32/15 A2999 RMK A01 T03190151  RH  038%=      5-min Rain = 0
KSP1 061715Z 21009G14KT 32/15 A2999 RMK A01 T03210154  RH  038%=      5-min Rain = 0
KSP1 061720Z 21010KT 33/16 A2999 RMK A01 T03250156  RH  038%=      5-min Rain = 0
KSP1 061725Z 19010G15KT 32/16 A2999 RMK A01 T03220155  RH  038%=      5-min Rain = 0
KSP1 061730Z 23011KT 32/15 A2999 RMK A01 T03230152  RH  037%=      5-min Rain = 0
KSP1 061735Z 20010G15KT 32/15 A2998 RMK A01 T03200153  RH  038%=      5-min Rain = 0
KSP1 061740Z 21009G14KT 32/15 A2998 RMK A01 T03200154  RH  038%=      5-min Rain = 0
KSP1 061745Z 19010G15KT 32/15 A2998 RMK A01 T03190153  RH  038%=      5-min Rain = 0
KSP1 061750Z 20008KT 32/15 A2998 RMK A01 T03220152  RH  038%=      5-min Rain = 0
KSP1 061755Z 21009G14KT 32/15 A2998 RMK A01 T03220151  RH  037%=      5-min Rain = 0
KSP1 061800Z 21009KT 32/15 A2998 RMK A01 T03220150  RH  037%=      5-min Rain = 0
KSP1 061805Z 22009KT 33/15 A2998 RMK A01 T03260151  RH  036%=      5-min Rain = 0
KSP1 061810Z 20009KT 33/15 A2998 RMK A01 T03300150  RH  035%=      5-min Rain = 0
KSP1 061815Z 18010KT 33/15 A2998 RMK A01 T03320150  RH  035%=      5-min Rain = 0
KSP1 061820Z 19009G14KT 34/15 A2998 RMK A01 T03440150  RH  033%=      5-min Rain = 0
KSP1 061825Z 19008KT 35/15 A2997 RMK A01 T03460149  RH  032%=      5-min Rain = 0
KSP1 061830Z 19010KT 35/15 A2997 RMK A01 T03500147  RH  031%=      5-min Rain = 0
KSP1 061835Z 18010KT 35/15 A2997 RMK A01 T03480145  RH  031%=      5-min Rain = 0
KSP1 061840Z 17009G14KT 35/15 A2997 RMK A01 T03500147  RH  031%=      5-min Rain = 0
KSP1 061845Z 18009G15KT 35/15 A2997 RMK A01 T03500147  RH  031%=      5-min Rain = 0
KSP1 061850Z 18009KT 35/14 A2997 RMK A01 T03530143  RH  030%=      5-min Rain = 0
KSP1 061855Z 19010KT 35/14 A2997 RMK A01 T03540142  RH  029%=      5-min Rain = 0
KSP1 061900Z 18011G16KT 36/14 A2996 RMK A01 T03550142  RH  029%=      5-min Rain = 0
KSP1 061905Z 20009KT 36/14 A2996 RMK A01 T03590141  RH  028%=      5-min Rain = 0
KSP1 061910Z 20007G12KT 36/14 A2996 RMK A01 T03550140  RH  029%=      5-min Rain = 0
KSP1 061915Z 18009KT 36/14 A2996 RMK A01 T03640138  RH  027%=      5-min Rain = 0
KSP1 061920Z 21011G16KT 37/12 A2995 RMK A01 T03700124  RH  024%=      5-min Rain = 0
KSP1 061925Z 20009G16KT 37/13 A2995 RMK A01 T03700125  RH  024%=      5-min Rain = 0
KSP1 061930Z 17012G20KT 38/12 A2995 RMK A01 T03760123  RH  023%=      5-min Rain = 0
KSP1 061935Z 19014G20KT 38/12 A2995 RMK A01 T03760119  RH  022%=      5-min Rain = 0
KSP1 061940Z 20014G20KT 38/12 A2994 RMK A01 T03780116  RH  022%=      5-min Rain = 0
KSP1 061945Z 20015G24KT 38/12 A2994 RMK A01 T03760118  RH  022%=      5-min Rain = 0
KSP1 061950Z 22012G20KT 38/12 A2994 RMK A01 T03810117  RH  021%=      5-min Rain = 0
KSP1 061955Z 20014G20KT 38/12 A2994 RMK A01 T03820116  RH  021%=      5-min Rain = 0
KSP1 062000Z 19012G18KT 39/12 A2994 RMK A01 T03850116  RH  021%=      5-min Rain = 0
KSP1 062005Z 20014G20KT 38/12 A2993 RMK A01 T03820118  RH  021%=      5-min Rain = 0
KSP1 062010Z 18013G20KT 38/12 A2993 RMK A01 T03820121  RH  022%=      5-min Rain = 0
KSP1 062015Z 19013G19KT 39/12 A2993 RMK A01 T03860121  RH  021%=      5-min Rain = 0
KSP1 062020Z 17013G18KT 39/12 A2993 RMK A01 T03850124  RH  022%=      5-min Rain = 0
KSP1 062025Z 18010G16KT 38/13 A2993 RMK A01 T03830126  RH  023%=      5-min Rain = 0
KSP1 062030Z 18014G22KT 39/13 A2993 RMK A01 T03860125  RH  022%=      5-min Rain = 0
KSP1 062035Z 18014KT 39/12 A2993 RMK A01 T03860123  RH  022%=      5-min Rain = 0
KSP1 062040Z 18014G21KT 39/13 A2992 RMK A01 T03850125  RH  022%=      5-min Rain = 0
KSP1 062045Z 18013G19KT 39/13 A2992 RMK A01 T03870126  RH  022%=      5-min Rain = 0
KSP1 062050Z 18011G19KT 39/13 A2992 RMK A01 T03850126  RH  022%=      5-min Rain = 0
KSP1 062055Z 17013G21KT 39/13 A2992 RMK A01 T03880129  RH  022%=      5-min Rain = 0
KSP1 062100Z 17013G18KT 39/13 A2992 RMK A01 T03880131  RH  023%=      5-min Rain = 0
KSP1 062105Z 18015G20KT 39/13 A2991 RMK A01 T03890129  RH  022%=      5-min Rain = 0
KSP1 062110Z 17011G17KT 39/13 A2992 RMK A01 T03890129  RH  022%=      5-min Rain = 0
KSP1 062115Z 16012G19KT 39/13 A2991 RMK A01 T03910129  RH  022%=      5-min Rain = 0
KSP1 062120Z 17014G23KT 39/12 A2991 RMK A01 T03860124  RH  022%=      5-min Rain = 0
KSP1 062125Z 20014G19KT 39/13 A2991 RMK A01 T03910129  RH  022%=      5-min Rain = 0
KSP1 062130Z 21012KT 39/13 A2991 RMK A01 T03900129  RH  022%=      5-min Rain = 0
KSP1 062135Z 19014G19KT 39/13 A2991 RMK A01 T03890128  RH  022%=      5-min Rain = 0
KSP1 062140Z 20014G19KT 39/13 A2991 RMK A01 T03900129  RH  022%=      5-min Rain = 0
KSP1 062145Z 19011G17KT 38/13 A2991 RMK A01 T03820129  RH  023%=      5-min Rain = 0
KSP1 062150Z 19015G21KT 38/13 A299 RMK A01 T03810130  RH  023%=      5-min Rain = 0
KSP1 062155Z 19014G21KT 38/13 A299 RMK A01 T03830134  RH  024%=      5-min Rain = 0
KSP1 062200Z 16011G19KT 39/14 A299 RMK A01 T03880137  RH  024%=      5-min Rain = 0
KSP1 062205Z 19014G21KT 39/14 A299 RMK A01 T03910138  RH  023%=      5-min Rain = 0
KSP1 062210Z 20012G19KT 39/13 A299 RMK A01 T03900134  RH  023%=      5-min Rain = 0
KSP1 062215Z 20010KT 39/14 A299 RMK A01 T03930136  RH  023%=      5-min Rain = 0
KSP1 062220Z 17012G19KT 39/14 A299 RMK A01 T03890139  RH  024%=      5-min Rain = 0
KSP1 062225Z 18010KT 38/14 A299 RMK A01 T03830138  RH  024%=      5-min Rain = 0
KSP1 062230Z 19012G20KT 38/14 A299 RMK A01 T03830136  RH  024%=      5-min Rain = 0
KSP1 062235Z 17014G21KT 39/13 A299 RMK A01 T03890133  RH  023%=      5-min Rain = 0
KSP1 062240Z 17014G20KT 39/13 A299 RMK A01 T03870130  RH  023%=      5-min Rain = 0
KSP1 062245Z 17013G19KT 38/13 A299 RMK A01 T03790132  RH  024%=      5-min Rain = 0
KSP1 062250Z 18013G20KT 38/13 A299 RMK A01 T03750131  RH  024%=      5-min Rain = 0
KSP1 062255Z 18010G15KT 38/13 A2989 RMK A01 T03750130  RH  024%=      5-min Rain = 0
KSP1 062300Z 17012G17KT 37/13 A2989 RMK A01 T03740126  RH  024%=      5-min Rain = 0
KSP1 062305Z 18009G14KT 38/13 A2989 RMK A01 T03760126  RH  023%=      5-min Rain = 0
KSP1 062310Z 19010G15KT 38/13 A2989 RMK A01 T03780129  RH  024%=      5-min Rain = 0
KSP1 062315Z 16012G18KT 38/13 A2989 RMK A01 T03780126  RH  023%=      5-min Rain = 0
KSP1 062320Z 17014G20KT 38/12 A2989 RMK A01 T03790124  RH  023%=      5-min Rain = 0
KSP1 062325Z 17013G18KT 38/12 A2989 RMK A01 T03810123  RH  022%=      5-min Rain = 0
KSP1 062330Z 19013G19KT 38/12 A2989 RMK A01 T03810124  RH  022%=      5-min Rain = 0
KSP1 062335Z 19012G17KT 38/13 A2988 RMK A01 T03810128  RH  023%=      5-min Rain = 0
KSP1 062340Z 19011G19KT 38/13 A2988 RMK A01 T03770129  RH  024%=      5-min Rain = 0
KSP1 062345Z 16010G17KT 37/13 A2988 RMK A01 T03740131  RH  024%=      5-min Rain = 0
KSP1 062350Z 15012G18KT 37/13 A2988 RMK A01 T03720132  RH  025%=      5-min Rain = 0
KSP1 062355Z 16010G15KT 37/13 A2988 RMK A01 T03700133  RH  025%=      5-min Rain = 0
KSP1 070000Z 16010G16KT 37/13 A2988 RMK A01 T03720130  RH  024%=      5-min Rain = 0
KSP1 070005Z 18012G17KT 38/13 A2988 RMK A01 T03750125  RH  023%=      5-min Rain = 0
KSP1 070010Z 18012KT 37/12 A2988 RMK A01 T03730123  RH  023%=      5-min Rain = 0
KSP1 070015Z 16012G19KT 37/13 A2988 RMK A01 T03700130  RH  025%=      5-min Rain = 0
KSP1 070020Z 16010G16KT 37/13 A2988 RMK A01 T03660132  RH  026%=      5-min Rain = 0
KSP1 070025Z 17009KT 37/13 A2988 RMK A01 T03670131  RH  025%=      5-min Rain = 0
KSP1 070030Z 19011G19KT 37/13 A2988 RMK A01 T03720126  RH  024%=      5-min Rain = 0
KSP1 070035Z 17012G18KT 37/13 A2988 RMK A01 T03700129  RH  025%=      5-min Rain = 0
KSP1 070040Z 16009KT 36/13 A2988 RMK A01 T03630132  RH  026%=      5-min Rain = 0
KSP1 070045Z 17009G17KT 36/13 A2988 RMK A01 T03610131  RH  026%=      5-min Rain = 0
KSP1 070050Z 18009G16KT 36/13 A2988 RMK A01 T03630125  RH  025%=      5-min Rain = 0
KSP1 070055Z 18009KT 36/13 A2989 RMK A01 T03610126  RH  025%=      5-min Rain = 0
KSP1 070100Z 17010G15KT 36/13 A2989 RMK A01 T03600127  RH  026%=      5-min Rain = 0
KSP1 070105Z 16008KT 36/13 A2989 RMK A01 T03580128  RH  026%=      5-min Rain = 0
KSP1 070110Z 16009KT 36/13 A2989 RMK A01 T03550131  RH  027%=      5-min Rain = 0
KSP1 070115Z 17011KT 35/13 A2989 RMK A01 T03530134  RH  028%=      5-min Rain = 0
KSP1 070120Z 16011G16KT 35/14 A299 RMK A01 T03510136  RH  029%=      5-min Rain = 0
KSP1 070125Z 16010KT 35/14 A299 RMK A01 T03490137  RH  029%=      5-min Rain = 0
KSP1 070130Z 16010KT 35/14 A299 RMK A01 T03480137  RH  029%=      5-min Rain = 0
KSP1 070135Z 16010G15KT 35/14 A299 RMK A01 T03460137  RH  030%=      5-min Rain = 0
KSP1 070140Z 16010G15KT 35/14 A299 RMK A01 T03450137  RH  030%=      5-min Rain = 0
KSP1 070145Z 16010G15KT 35/14 A2991 RMK A01 T03450137  RH  030%=      5-min Rain = 0
KSP1 070150Z 16010G15KT 34/14 A2991 RMK A01 T03430136  RH  030%=      5-min Rain = 0
KSP1 070155Z 16009KT 34/14 A2991 RMK A01 T03400136  RH  030%=      5-min Rain = 0
KSP1 070200Z 16009KT 34/14 A2991 RMK A01 T03390136  RH  031%=      5-min Rain = 0
KSP1 070205Z 16008KT 34/14 A2991 RMK A01 T03370136  RH  031%=      5-min Rain = 0
KSP1 070210Z 16008KT 34/14 A2991 RMK A01 T03350136  RH  031%=      5-min Rain = 0
KSP1 070215Z 16008G13KT 34/14 A2991 RMK A01 T03350135  RH  031%=      5-min Rain = 0
KSP1 070220Z 16008KT 33/14 A2991 RMK A01 T03340135  RH  031%=      5-min Rain = 0
KSP1 070225Z 16008KT 33/13 A2991 RMK A01 T03320134  RH  031%=      5-min Rain = 0
KSP1 070230Z 17008KT 33/13 A2991 RMK A01 T03300133  RH  032%=      5-min Rain = 0
KSP1 070235Z 17007KT 33/13 A2991 RMK A01 T03300134  RH  032%=      5-min Rain = 0
KSP1 070240Z 17007KT 33/13 A2991 RMK A01 T03270134  RH  032%=      5-min Rain = 0
KSP1 070245Z 16008KT 33/13 A2991 RMK A01 T03270133  RH  032%=      5-min Rain = 0
KSP1 070250Z 16008KT 33/13 A2991 RMK A01 T03260133  RH  032%=      5-min Rain = 0
KSP1 070255Z 17008KT 33/13 A2991 RMK A01 T03260132  RH  032%=      5-min Rain = 0
KSP1 070300Z 17008KT 33/13 A2992 RMK A01 T03260131  RH  032%=      5-min Rain = 0
KSP1 070305Z 17008KT 33/13 A2992 RMK A01 T03260130  RH  032%=      5-min Rain = 0
KSP1 070310Z 18008KT 33/13 A2992 RMK A01 T03250129  RH  032%=      5-min Rain = 0
KSP1 070315Z 18007KT 32/13 A2993 RMK A01 T03240129  RH  032%=      5-min Rain = 0
KSP1 070320Z 18007KT 32/13 A2993 RMK A01 T03240129  RH  032%=      5-min Rain = 0
KSP1 070325Z 20007KT 32/13 A2993 RMK A01 T03230129  RH  032%=      5-min Rain = 0
KSP1 070330Z 23011G19KT 32/13 A2995 RMK A01 T03210130  RH  033%=      5-min Rain = 0
KSP1 070335Z 23011G19KT 33/13 A2995 RMK A01 T03260132  RH  032%=      5-min Rain = 0
KSP1 070340Z 23008G14KT 33/13 A2995 RMK A01 T03260133  RH  032%=      5-min Rain = 0
KSP1 070345Z 23008G14KT 33/13 A2995 RMK A01 T03260133  RH  032%=      5-min Rain = 0
KSP1 070350Z 23006KT 32/13 A2995 RMK A01 T03230134  RH  033%=      5-min Rain = 0
KSP1 070355Z 23007KT 32/13 A2995 RMK A01 T03200134  RH  034%=      5-min Rain = 0
KSP1 070400Z 23007KT 32/14 A2995 RMK A01 T03170136  RH  035%=      5-min Rain = 0
KSP1 070405Z 23005KT 31/14 A2995 RMK A01 T03140137  RH  036%=      5-min Rain = 0
KSP1 070410Z 23005KT 31/14 A2995 RMK A01 T03110137  RH  036%=      5-min Rain = 0
KSP1 070415Z 22005KT 31/14 A2995 RMK A01 T03090137  RH  037%=      5-min Rain = 0
KSP1 070420Z 21005KT 31/14 A2994 RMK A01 T03080138  RH  037%=      5-min Rain = 0
KSP1 070425Z 20006KT 31/14 A2994 RMK A01 T03070138  RH  037%=      5-min Rain = 0
KSP1 070430Z 20004KT 31/14 A2994 RMK A01 T03050139  RH  038%=      5-min Rain = 0
KSP1 070435Z 19005KT 30/14 A2994 RMK A01 T03030139  RH  038%=      5-min Rain = 0
KSP1 070440Z 18004KT 30/14 A2994 RMK A01 T03000139  RH  039%=      5-min Rain = 0
KSP1 070445Z 19004KT 30/14 A2994 RMK A01 T02970140  RH  040%=      5-min Rain = 0
KSP1 070450Z 18004KT 30/14 A2993 RMK A01 T02950140  RH  040%=      5-min Rain = 0
KSP1 070455Z 17004KT 29/14 A2993 RMK A01 T02930140  RH  041%=      5-min Rain = 0

Page generated in 0.0364 seconds.